createdAt,value
2017-05-01T00:00:33.908Z,1000.51
2017-05-01T00:01:43.822Z,1000.53
2017-05-01T00:02:54.044Z,1000.51
2017-05-01T00:04:03.979Z,1000.48
2017-05-01T00:05:13.906Z,1000.5
2017-05-01T00:06:24.300Z,1000.46
2017-05-01T00:07:34.242Z,1000.45
2017-05-01T00:08:44.172Z,1000.47
2017-05-01T00:09:54.108Z,1000.44
2017-05-01T00:11:04.354Z,1000.39
2017-05-01T00:12:14.261Z,1000.4
2017-05-01T00:13:24.209Z,1000.39
2017-05-01T00:14:34.122Z,1000.4
2017-05-01T00:15:44.042Z,1000.37
2017-05-01T00:16:54.282Z,1000.37
2017-05-01T00:18:04.613Z,1000.4
2017-05-01T00:19:14.549Z,1000.41
2017-05-01T00:20:24.475Z,1000.34
2017-05-01T00:21:34.709Z,1000.41
2017-05-01T00:22:44.943Z,1000.4
2017-05-01T00:23:55.413Z,1000.39
2017-05-01T00:25:05.334Z,1000.35
2017-05-01T00:26:14.639Z,1000.35
2017-05-01T00:27:24.884Z,1000.39
2017-05-01T00:28:35.135Z,1000.43
2017-05-01T00:29:45.353Z,1000.4
2017-05-01T00:30:54.969Z,1000.5
2017-05-01T00:32:04.896Z,1000.46
2017-05-01T00:33:15.117Z,1000.44
2017-05-01T00:34:25.033Z,1000.42
2017-05-01T00:35:35.250Z,1000.49
2017-05-01T00:36:44.867Z,1000.41
2017-05-01T00:37:54.477Z,1000.45
2017-05-01T00:39:04.717Z,1000.4
2017-05-01T00:40:14.336Z,1000.49
2017-05-01T00:41:24.877Z,1000.46
2017-05-01T00:42:35.102Z,1000.46
2017-05-01T00:43:45.330Z,1000.45
2017-05-01T00:44:54.963Z,1000.45
2017-05-01T00:46:05.190Z,1000.42
2017-05-01T00:47:15.147Z,1000.46
2017-05-01T00:48:24.757Z,1000.51
2017-05-01T00:49:34.679Z,1000.53
2017-05-01T00:50:44.904Z,1000.56
2017-05-01T00:51:54.517Z,1000.56
2017-05-01T00:53:05.034Z,1000.62
2017-05-01T00:54:15.258Z,1000.65
2017-05-01T00:55:25.508Z,1000.6
2017-05-01T00:56:35.457Z,1000.57
2017-05-01T00:57:45.381Z,1000.64
2017-05-01T00:58:55.976Z,1000.63
2017-05-01T01:00:06.196Z,1000.65
2017-05-01T01:01:16.109Z,1000.66
2017-05-01T01:02:26.043Z,1000.62
2017-05-01T01:03:36.259Z,1000.6
2017-05-01T01:04:46.795Z,1000.61
2017-05-01T01:05:56.723Z,1000.58
2017-05-01T01:07:06.644Z,1000.62
2017-05-01T01:08:16.560Z,1000.6
2017-05-01T01:09:26.781Z,1000.62
2017-05-01T01:10:37.045Z,1000.63
2017-05-01T01:11:46.665Z,1000.64
2017-05-01T01:12:56.593Z,1000.65
2017-05-01T01:14:06.811Z,1000.65
2017-05-01T01:15:17.044Z,1000.63
2017-05-01T01:16:27.093Z,1000.62
2017-05-01T01:17:37.324Z,1000.59
2017-05-01T01:18:47.246Z,1000.6
2017-05-01T01:19:56.859Z,1000.61
2017-05-01T01:21:05.866Z,1000.64
2017-05-01T01:22:15.739Z,1000.66
2017-05-01T01:23:25.352Z,1000.68
2017-05-01T01:24:35.595Z,1000.72
2017-05-01T01:25:45.817Z,1000.73
2017-05-01T01:26:55.737Z,1000.78
2017-05-01T01:28:05.946Z,1000.79
2017-05-01T01:29:16.173Z,1000.75
2017-05-01T01:30:26.087Z,1000.81
2017-05-01T01:31:35.698Z,1000.82
2017-05-01T01:32:45.306Z,1000.86
2017-05-01T01:33:55.572Z,1000.86
2017-05-01T01:35:05.499Z,1000.86
2017-05-01T01:36:15.708Z,1000.87
2017-05-01T01:37:25.633Z,1000.88
2017-05-01T01:38:35.868Z,1000.89
2017-05-01T01:39:46.348Z,1000.84
2017-05-01T01:40:56.564Z,1000.87
2017-05-01T01:42:06.161Z,1000.84
2017-05-01T01:43:16.077Z,1000.87
2017-05-01T01:44:26.322Z,1000.92
2017-05-01T01:45:36.801Z,1000.86
2017-05-01T01:46:46.429Z,1000.87
2017-05-01T01:47:56.051Z,1000.9
2017-05-01T01:49:05.967Z,1000.89
2017-05-01T01:50:15.881Z,1000.94
2017-05-01T01:51:25.500Z,1000.9
2017-05-01T01:52:35.113Z,1000.98
2017-05-01T01:53:45.030Z,1000.94
2017-05-01T01:54:54.949Z,1000.99
2017-05-01T01:56:04.869Z,1000.96
2017-05-01T01:57:15.134Z,1001.01
2017-05-01T01:58:25.348Z,1000.96
2017-05-01T01:59:35.257Z,1000.98
2017-05-01T02:00:44.867Z,1000.98
2017-05-01T02:01:54.793Z,1000.98
2017-05-01T02:03:05.255Z,1001.01
2017-05-01T02:04:14.875Z,1001
2017-05-01T02:05:25.100Z,1001.04
2017-05-01T02:06:35.015Z,1001.07
2017-05-01T02:07:45.245Z,1001.06
2017-05-01T02:08:55.814Z,1001.11
2017-05-01T02:10:05.410Z,1001.07
2017-05-01T02:11:15.324Z,1001.11
2017-05-01T02:12:25.231Z,1001.11
2017-05-01T02:13:35.461Z,1001.13
2017-05-01T02:14:45.786Z,1001.07
2017-05-01T02:15:55.693Z,1001.09
2017-05-01T02:17:05.603Z,1001.09
2017-05-01T02:18:14.898Z,1001.08
2017-05-01T02:19:25.130Z,1001.1
2017-05-01T02:20:35.402Z,1001.1
2017-05-01T02:21:45.324Z,1001.12
2017-05-01T02:22:55.228Z,1001.09
2017-05-01T02:24:04.555Z,1001.14
2017-05-01T02:25:14.472Z,1001.1
2017-05-01T02:26:24.557Z,1001.12
2017-05-01T02:27:34.169Z,1001.09
2017-05-01T02:28:44.393Z,1001.09
2017-05-01T02:29:54.320Z,1001.08
2017-05-01T02:31:03.932Z,1001.1
2017-05-01T02:32:13.697Z,1001.07
2017-05-01T02:33:23.602Z,1001.08
2017-05-01T02:34:33.523Z,1001.09
2017-05-01T02:35:43.775Z,1001.06
2017-05-01T02:36:53.706Z,1001.04
2017-05-01T02:38:03.562Z,1001.04
2017-05-01T02:39:13.798Z,1001.01
2017-05-01T02:40:23.716Z,1001.03
2017-05-01T02:41:33.935Z,1000.99
2017-05-01T02:42:43.856Z,1000.98
2017-05-01T02:43:54.341Z,1001.08
2017-05-01T02:45:03.952Z,1001.06
2017-05-01T02:46:13.877Z,1001.07
2017-05-01T02:47:23.778Z,1001.05
2017-05-01T02:48:33.686Z,1001.06
2017-05-01T02:49:44.068Z,1001.07
2017-05-01T02:50:53.677Z,1001.1
2017-05-01T02:52:03.593Z,1001.09
2017-05-01T02:53:13.211Z,1001.16
2017-05-01T02:54:23.438Z,1001.13
2017-05-01T02:55:33.926Z,1001.19
2017-05-01T02:56:43.843Z,1001.19
2017-05-01T02:57:53.498Z,1001.24
2017-05-01T02:59:03.728Z,1001.21
2017-05-01T03:00:13.648Z,1001.23
2017-05-01T03:01:23.811Z,1001.21
2017-05-01T03:02:33.427Z,1001.2
2017-05-01T03:03:42.719Z,1001.25
2017-05-01T03:04:52.661Z,1001.24
2017-05-01T03:06:02.890Z,1001.23
2017-05-01T03:07:12.433Z,1001.27
2017-05-01T03:08:22.043Z,1001.25
2017-05-01T03:09:31.950Z,1001.25
2017-05-01T03:10:42.183Z,1001.3
2017-05-01T03:11:51.781Z,1001.29
2017-05-01T03:13:01.537Z,1001.26
2017-05-01T03:14:10.843Z,1001.28
2017-05-01T03:15:21.056Z,1001.3
2017-05-01T03:16:31.289Z,1001.29
2017-05-01T03:17:41.513Z,1001.3
2017-05-01T03:18:51.731Z,1001.31
2017-05-01T03:20:01.699Z,1001.27
2017-05-01T03:21:11.626Z,1001.25
2017-05-01T03:22:21.849Z,1001.27
2017-05-01T03:23:31.770Z,1001.31
2017-05-01T03:24:41.774Z,1001.34
2017-05-01T03:25:51.686Z,1001.35
2017-05-01T03:27:01.290Z,1001.33
2017-05-01T03:28:10.904Z,1001.34
2017-05-01T03:29:20.822Z,1001.38
2017-05-01T03:30:30.902Z,1001.37
2017-05-01T03:31:40.530Z,1001.39
2017-05-01T03:32:50.447Z,1001.39
2017-05-01T03:34:00.677Z,1001.38
2017-05-01T03:35:09.969Z,1001.37
2017-05-01T03:36:20.028Z,1001.35
2017-05-01T03:37:29.963Z,1001.44
2017-05-01T03:38:39.953Z,1001.42
2017-05-01T03:39:49.883Z,1001.44
2017-05-01T03:41:00.104Z,1001.45
2017-05-01T03:42:09.982Z,1001.44
2017-05-01T03:43:19.595Z,1001.48
2017-05-01T03:44:29.527Z,1001.54
2017-05-01T03:45:39.431Z,1001.51
2017-05-01T03:46:49.350Z,1001.51
2017-05-01T03:47:59.307Z,1001.54
2017-05-01T03:49:08.609Z,1001.55
2017-05-01T03:50:18.864Z,1001.55
2017-05-01T03:51:29.108Z,1001.56
2017-05-01T03:52:39.019Z,1001.58
2017-05-01T03:53:49.550Z,1001.64
2017-05-01T03:54:59.485Z,1001.65
2017-05-01T03:56:09.715Z,1001.68
2017-05-01T03:57:19.938Z,1001.67
2017-05-01T03:58:30.178Z,1001.65
2017-05-01T03:59:40.576Z,1001.73
2017-05-01T04:00:49.883Z,1001.73
2017-05-01T04:02:00.111Z,1001.73
2017-05-01T04:03:10.328Z,1001.82
2017-05-01T04:04:20.556Z,1001.8
2017-05-01T04:05:30.933Z,1001.85
2017-05-01T04:06:40.850Z,1001.86
2017-05-01T04:07:51.086Z,1001.9
2017-05-01T04:09:00.395Z,1001.92
2017-05-01T04:10:10.350Z,1001.93
2017-05-01T04:11:20.839Z,1001.92
2017-05-01T04:12:30.741Z,1001.9
2017-05-01T04:13:40.667Z,1001.91
2017-05-01T04:14:50.579Z,1001.93
2017-05-01T04:16:00.187Z,1001.95
2017-05-01T04:17:10.384Z,1001.94
2017-05-01T04:18:20.600Z,1001.94
2017-05-01T04:19:30.836Z,1001.95
2017-05-01T04:20:40.744Z,1001.99
2017-05-01T04:21:50.685Z,1001.93
2017-05-01T04:23:00.464Z,1001.95
2017-05-01T04:24:10.399Z,1001.96
2017-05-01T04:25:20.329Z,1001.98
2017-05-01T04:26:29.631Z,1002.03
2017-05-01T04:27:38.927Z,1002.03
2017-05-01T04:28:48.797Z,1002.07
2017-05-01T04:29:58.723Z,1002.12
2017-05-01T04:31:08.347Z,1002.14
2017-05-01T04:32:18.782Z,1002.14
2017-05-01T04:33:28.395Z,1002.22
2017-05-01T04:34:38.037Z,1002.25
2017-05-01T04:35:47.646Z,1002.26
2017-05-01T04:36:57.563Z,1002.28
2017-05-01T04:38:07.810Z,1002.25
2017-05-01T04:39:17.725Z,1002.26
2017-05-01T04:40:27.897Z,1002.29
2017-05-01T04:41:37.819Z,1002.31
2017-05-01T04:42:48.037Z,1002.32
2017-05-01T04:43:57.953Z,1002.35
2017-05-01T04:45:07.567Z,1002.35
2017-05-01T04:46:17.219Z,1002.39
2017-05-01T04:47:27.155Z,1002.37
2017-05-01T04:48:37.380Z,1002.4
2017-05-01T04:49:46.995Z,1002.44
2017-05-01T04:50:57.231Z,1002.47
2017-05-01T04:52:07.800Z,1002.48
2017-05-01T04:53:17.708Z,1002.46
2017-05-01T04:54:27.321Z,1002.5
2017-05-01T04:55:37.239Z,1002.5
2017-05-01T04:56:47.487Z,1002.51
2017-05-01T04:57:58.011Z,1002.52
2017-05-01T04:59:07.927Z,1002.52
2017-05-01T05:00:17.840Z,1002.57
2017-05-01T05:01:27.752Z,1002.57
2017-05-01T05:02:37.975Z,1002.57
2017-05-01T05:03:48.552Z,1002.6
2017-05-01T05:04:58.468Z,1002.66
2017-05-01T05:06:08.385Z,1002.69
2017-05-01T05:07:17.693Z,1002.76
2017-05-01T05:08:27.612Z,1002.8
2017-05-01T05:09:37.682Z,1002.77
2017-05-01T05:10:47.902Z,1002.82
2017-05-01T05:11:58.110Z,1002.86
2017-05-01T05:13:08.351Z,1002.92
2017-05-01T05:14:18.577Z,1002.93
2017-05-01T05:15:28.034Z,1002.99
2017-05-01T05:16:37.949Z,1003.02
2017-05-01T05:17:47.563Z,1003.02
2017-05-01T05:18:57.467Z,1003.07
2017-05-01T05:20:07.685Z,1003.08
2017-05-01T05:21:17.752Z,1003.13
2017-05-01T05:22:27.365Z,1003.17
2017-05-01T05:23:36.660Z,1003.16
2017-05-01T05:24:46.891Z,1003.24
2017-05-01T05:25:56.839Z,1003.29
2017-05-01T05:27:07.103Z,1003.28
2017-05-01T05:28:17.328Z,1003.32
2017-05-01T05:29:26.954Z,1003.34
2017-05-01T05:30:36.857Z,1003.37
2017-05-01T05:31:46.770Z,1003.38
2017-05-01T05:32:57.304Z,1003.38
2017-05-01T05:34:07.532Z,1003.41
2017-05-01T05:35:17.135Z,1003.48
2017-05-01T05:36:27.040Z,1003.47
2017-05-01T05:37:37.263Z,1003.51
2017-05-01T05:38:47.581Z,1003.51
2017-05-01T05:39:57.816Z,1003.51
2017-05-01T05:41:07.446Z,1003.55
2017-05-01T05:42:17.684Z,1003.6
2017-05-01T05:43:27.296Z,1003.58
2017-05-01T05:44:37.892Z,1003.62
2017-05-01T05:45:47.512Z,1003.7
2017-05-01T05:46:57.431Z,1003.74
2017-05-01T05:48:07.042Z,1003.73
2017-05-01T05:49:17.288Z,1003.78
2017-05-01T05:50:27.550Z,1003.78
2017-05-01T05:51:37.462Z,1003.82
2017-05-01T05:52:47.379Z,1003.81
2017-05-01T05:53:57.295Z,1003.81
2017-05-01T05:55:07.516Z,1003.83
2017-05-01T05:56:17.790Z,1003.85
2017-05-01T05:57:28.006Z,1003.81
2017-05-01T05:58:37.979Z,1003.81
2017-05-01T05:59:47.904Z,1003.85
2017-05-01T06:00:57.809Z,1003.9
2017-05-01T06:02:07.360Z,1003.86
2017-05-01T06:03:16.964Z,1003.88
2017-05-01T06:04:26.896Z,1003.92
2017-05-01T06:05:36.808Z,1003.93
2017-05-01T06:06:46.416Z,1003.99
2017-05-01T06:07:56.674Z,1004
2017-05-01T06:09:06.900Z,1004.02
2017-05-01T06:10:16.817Z,1004.03
2017-05-01T06:11:27.045Z,1004.1
2017-05-01T06:12:37.296Z,1004.13
2017-05-01T06:13:47.636Z,1004.11
2017-05-01T06:14:57.623Z,1004.09
2017-05-01T06:16:07.527Z,1004.13
2017-05-01T06:17:17.448Z,1004.1
2017-05-01T06:18:27.431Z,1004.2
2017-05-01T06:19:37.311Z,1004.18
2017-05-01T06:20:46.921Z,1004.21
2017-05-01T06:21:57.143Z,1004.26
2017-05-01T06:23:06.769Z,1004.21
2017-05-01T06:24:16.385Z,1004.23
2017-05-01T06:25:26.726Z,1004.25
2017-05-01T06:26:36.639Z,1004.24
2017-05-01T06:27:46.953Z,1004.25
2017-05-01T06:28:57.197Z,1004.26
2017-05-01T06:30:07.416Z,1004.27
2017-05-01T06:31:17.182Z,1004.29
2017-05-01T06:32:27.159Z,1004.3
2017-05-01T06:33:37.096Z,1004.33
2017-05-01T06:34:47.015Z,1004.36
2017-05-01T06:35:56.607Z,1004.39
2017-05-01T06:37:06.256Z,1004.41
2017-05-01T06:38:15.858Z,1004.49
2017-05-01T06:39:26.080Z,1004.52
2017-05-01T06:40:36.017Z,1004.53
2017-05-01T06:41:46.259Z,1004.57
2017-05-01T06:42:56.510Z,1004.62
2017-05-01T06:44:06.414Z,1004.67
2017-05-01T06:45:16.322Z,1004.67
2017-05-01T06:46:26.236Z,1004.67
2017-05-01T06:47:36.145Z,1004.68
2017-05-01T06:48:46.163Z,1004.64
2017-05-01T06:49:56.081Z,1004.64
2017-05-01T06:51:05.989Z,1004.66
2017-05-01T06:52:15.273Z,1004.71
2017-05-01T06:53:25.225Z,1004.69
2017-05-01T06:54:35.196Z,1004.76
2017-05-01T06:55:45.213Z,1004.72
2017-05-01T06:56:54.517Z,1004.8
2017-05-01T06:58:04.747Z,1004.78
2017-05-01T06:59:14.651Z,1004.79
2017-05-01T07:00:24.952Z,1004.82
2017-05-01T07:01:35.202Z,1004.85
2017-05-01T07:02:45.420Z,1004.85
2017-05-01T07:03:56.015Z,1004.89
2017-05-01T07:05:05.929Z,1004.87
2017-05-01T07:06:16.198Z,1004.92
2017-05-01T07:07:25.882Z,1004.89
2017-05-01T07:08:36.222Z,1004.92
2017-05-01T07:09:46.454Z,1004.92
2017-05-01T07:10:56.908Z,1004.99
2017-05-01T07:12:07.845Z,1004.96
2017-05-01T07:13:17.851Z,1004.95
2017-05-01T07:14:27.822Z,1004.97
2017-05-01T07:15:37.721Z,1005
2017-05-01T07:16:47.772Z,1004.99
2017-05-01T07:17:57.852Z,1005.05
2017-05-01T07:19:07.462Z,1005.08
2017-05-01T07:20:16.869Z,1005.05
2017-05-01T07:21:27.773Z,1005.07
2017-05-01T07:22:37.791Z,1005.12
2017-05-01T07:23:48.282Z,1005.14
2017-05-01T07:24:58.940Z,1005.12
2017-05-01T07:26:09.587Z,1005.13
2017-05-01T07:27:19.863Z,1005.14
2017-05-01T07:28:30.082Z,1005.16
2017-05-01T07:29:40.580Z,1005.15
2017-05-01T07:30:51.283Z,1005.2
2017-05-01T07:32:01.691Z,1005.23
2017-05-01T07:33:10.993Z,1005.2
2017-05-01T07:34:20.915Z,1005.2
2017-05-01T07:35:31.065Z,1005.27
2017-05-01T07:36:40.978Z,1005.24
2017-05-01T07:37:50.885Z,1005.28
2017-05-01T07:39:01.103Z,1005.32
2017-05-01T07:40:10.718Z,1005.26
2017-05-01T07:41:21.201Z,1005.34
2017-05-01T07:42:31.419Z,1005.34
2017-05-01T07:43:41.503Z,1005.34
2017-05-01T07:44:51.518Z,1005.33
2017-05-01T07:46:01.216Z,1005.34
2017-05-01T07:47:11.427Z,1005.34
2017-05-01T07:48:21.640Z,1005.35
2017-05-01T07:49:31.245Z,1005.37
2017-05-01T07:50:41.150Z,1005.4
2017-05-01T07:51:51.069Z,1005.42
2017-05-01T07:53:01.267Z,1005.39
2017-05-01T07:54:11.492Z,1005.47
2017-05-01T07:55:21.719Z,1005.44
2017-05-01T07:56:31.929Z,1005.45
2017-05-01T07:57:41.830Z,1005.45
2017-05-01T07:58:52.408Z,1005.48
2017-05-01T08:00:02.643Z,1005.49
2017-05-01T08:01:12.272Z,1005.5
2017-05-01T08:02:22.190Z,1005.49
2017-05-01T08:03:32.098Z,1005.53
2017-05-01T08:04:41.986Z,1005.56
2017-05-01T08:05:51.582Z,1005.62
2017-05-01T08:07:01.785Z,1005.59
2017-05-01T08:08:11.995Z,1005.62
2017-05-01T08:09:21.596Z,1005.63
2017-05-01T08:10:31.967Z,1005.63
2017-05-01T08:11:41.889Z,1005.66
2017-05-01T08:12:51.484Z,1005.69
2017-05-01T08:14:01.084Z,1005.74
2017-05-01T08:15:10.996Z,1005.71
2017-05-01T08:16:20.099Z,1005.76
2017-05-01T08:17:30.306Z,1005.79
2017-05-01T08:18:40.217Z,1005.82
2017-05-01T08:19:50.119Z,1005.85
2017-05-01T08:20:59.726Z,1005.89
2017-05-01T08:22:10.088Z,1005.9
2017-05-01T08:23:20.031Z,1005.84
2017-05-01T08:24:30.253Z,1005.86
2017-05-01T08:25:40.474Z,1005.88
2017-05-01T08:26:50.458Z,1005.91
2017-05-01T08:28:00.536Z,1005.86
2017-05-01T08:29:11.356Z,1005.87
2017-05-01T08:30:21.567Z,1005.95
2017-05-01T08:31:31.166Z,1005.94
2017-05-01T08:32:41.091Z,1005.96
2017-05-01T08:33:50.957Z,1005.95
2017-05-01T08:35:01.168Z,1005.97
2017-05-01T08:36:10.827Z,1005.96
2017-05-01T08:37:20.768Z,1006
2017-05-01T08:38:30.681Z,1005.98
2017-05-01T08:39:40.901Z,1005.98
2017-05-01T08:40:51.118Z,1005.94
2017-05-01T08:42:01.329Z,1005.98
2017-05-01T08:43:10.932Z,1005.98
2017-05-01T08:44:20.580Z,1006.02
2017-05-01T08:45:30.196Z,1006.05
2017-05-01T08:46:40.119Z,1006.06
2017-05-01T08:47:50.026Z,1006.08
2017-05-01T08:49:00.242Z,1006.08
2017-05-01T08:50:09.889Z,1006.16
2017-05-01T08:51:19.481Z,1006.15
2017-05-01T08:52:29.693Z,1006.17
2017-05-01T08:53:39.895Z,1006.2
2017-05-01T08:54:49.510Z,1006.22
2017-05-01T08:55:59.694Z,1006.22
2017-05-01T08:57:09.292Z,1006.22
2017-05-01T08:58:18.965Z,1006.25
2017-05-01T08:59:29.193Z,1006.28
2017-05-01T09:00:39.784Z,1006.24
2017-05-01T09:01:49.981Z,1006.29
2017-05-01T09:03:00.193Z,1006.25
2017-05-01T09:04:09.487Z,1006.27
2017-05-01T09:05:19.417Z,1006.29
2017-05-01T09:06:29.325Z,1006.31
2017-05-01T09:07:39.676Z,1006.3
2017-05-01T09:08:50.250Z,1006.33
2017-05-01T09:10:00.501Z,1006.33
2017-05-01T09:11:09.796Z,1006.35
2017-05-01T09:12:20.081Z,1006.39
2017-05-01T09:13:30.341Z,1006.36
2017-05-01T09:14:39.995Z,1006.37
2017-05-01T09:15:50.463Z,1006.37
2017-05-01T09:17:00.663Z,1006.4
2017-05-01T09:18:10.642Z,1006.38
2017-05-01T09:19:20.660Z,1006.37
2017-05-01T09:20:30.644Z,1006.38
2017-05-01T09:21:40.234Z,1006.38
2017-05-01T09:22:50.151Z,1006.4
2017-05-01T09:24:00.059Z,1006.41
2017-05-01T09:25:10.080Z,1006.43
2017-05-01T09:26:19.688Z,1006.43
2017-05-01T09:27:29.607Z,1006.46
2017-05-01T09:28:39.832Z,1006.49
2017-05-01T09:29:49.462Z,1006.51
2017-05-01T09:30:59.695Z,1006.47
2017-05-01T09:32:09.318Z,1006.46
2017-05-01T09:33:19.582Z,1006.49
2017-05-01T09:34:29.819Z,1006.51
2017-05-01T09:35:39.752Z,1006.51
2017-05-01T09:36:50.343Z,1006.53
2017-05-01T09:38:00.896Z,1006.52
2017-05-01T09:39:11.896Z,1006.54
2017-05-01T09:40:23.343Z,1006.55
2017-05-01T09:41:34.262Z,1006.56
2017-05-01T09:42:44.169Z,1006.55
2017-05-01T09:43:54.806Z,1006.6
2017-05-01T09:45:05.445Z,1006.59
2017-05-01T09:46:15.727Z,1006.6
2017-05-01T09:47:26.421Z,1006.67
2017-05-01T09:48:37.086Z,1006.67
2017-05-01T09:49:47.307Z,1006.7
2017-05-01T09:50:57.893Z,1006.74
2017-05-01T09:52:08.058Z,1006.72
2017-05-01T09:53:19.152Z,1006.76
2017-05-01T09:54:29.403Z,1006.73
2017-05-01T09:55:39.095Z,1006.75
2017-05-01T09:56:49.057Z,1006.74
2017-05-01T09:58:00.057Z,1006.78
2017-05-01T09:59:10.615Z,1006.81
2017-05-01T10:00:23.132Z,1006.84
2017-05-01T10:01:33.878Z,1006.89
2017-05-01T10:02:45.283Z,1006.9
2017-05-01T10:03:56.574Z,1006.89
2017-05-01T10:05:06.178Z,1006.91
2017-05-01T10:06:16.268Z,1006.9
2017-05-01T10:07:25.264Z,1006.92
2017-05-01T10:08:34.886Z,1006.93
2017-05-01T10:09:44.490Z,1006.92
2017-05-01T10:10:54.408Z,1006.9
2017-05-01T10:12:04.590Z,1006.9
2017-05-01T10:13:14.817Z,1006.89
2017-05-01T10:14:24.761Z,1006.9
2017-05-01T10:15:34.373Z,1006.93
2017-05-01T10:16:44.289Z,1006.92
2017-05-01T10:17:54.355Z,1006.96
2017-05-01T10:19:04.258Z,1007.01
2017-05-01T10:20:13.854Z,1007.01
2017-05-01T10:21:23.460Z,1007.06
2017-05-01T10:22:33.396Z,1007.05
2017-05-01T10:23:43.713Z,1007.07
2017-05-01T10:24:53.935Z,1007.08
2017-05-01T10:26:03.859Z,1007.14
2017-05-01T10:27:13.801Z,1007.14
2017-05-01T10:28:24.041Z,1007.12
2017-05-01T10:29:34.639Z,1007.14
2017-05-01T10:30:44.574Z,1007.13
2017-05-01T10:31:54.480Z,1007.13
2017-05-01T10:33:04.433Z,1007.13
2017-05-01T10:34:14.370Z,1007.14
2017-05-01T10:35:24.653Z,1007.15
2017-05-01T10:36:33.656Z,1007.18
2017-05-01T10:37:43.572Z,1007.2
2017-05-01T10:38:53.863Z,1007.22
2017-05-01T10:40:03.183Z,1007.19
2017-05-01T10:41:12.958Z,1007.2
2017-05-01T10:42:22.285Z,1007.17
2017-05-01T10:43:32.211Z,1007.16
2017-05-01T10:44:42.150Z,1007.16
2017-05-01T10:45:52.089Z,1007.19
2017-05-01T10:47:02.371Z,1007.17
2017-05-01T10:48:11.979Z,1007.19
2017-05-01T10:49:22.223Z,1007.18
2017-05-01T10:50:32.129Z,1007.2
2017-05-01T10:51:41.888Z,1007.17
2017-05-01T10:52:51.961Z,1007.17
2017-05-01T10:54:02.250Z,1007.17
2017-05-01T10:55:12.164Z,1007.19
2017-05-01T10:56:22.386Z,1007.19
2017-05-01T10:57:32.604Z,1007.18
2017-05-01T10:58:42.868Z,1007.22
2017-05-01T10:59:53.121Z,1007.21
2017-05-01T11:01:02.729Z,1007.21
2017-05-01T11:02:12.944Z,1007.22
2017-05-01T11:03:22.870Z,1007.24
2017-05-01T11:04:32.954Z,1007.2
2017-05-01T11:05:43.202Z,1007.24
2017-05-01T11:06:52.859Z,1007.24
2017-05-01T11:08:03.127Z,1007.26
2017-05-01T11:09:13.367Z,1007.27
2017-05-01T11:10:23.305Z,1007.27
2017-05-01T11:11:33.240Z,1007.3
2017-05-01T11:12:42.561Z,1007.3
2017-05-01T11:13:52.843Z,1007.31
2017-05-01T11:15:02.765Z,1007.31
2017-05-01T11:16:13.649Z,1007.33
2017-05-01T11:17:23.603Z,1007.32
2017-05-01T11:18:33.529Z,1007.31
2017-05-01T11:19:43.445Z,1007.32
2017-05-01T11:20:53.707Z,1007.3
2017-05-01T11:22:03.999Z,1007.3
2017-05-01T11:23:13.339Z,1007.32
2017-05-01T11:24:22.981Z,1007.31
2017-05-01T11:25:32.905Z,1007.32
2017-05-01T11:26:42.864Z,1007.32
2017-05-01T11:27:52.620Z,1007.34
2017-05-01T11:29:02.845Z,1007.3
2017-05-01T11:30:12.492Z,1007.31
2017-05-01T11:31:22.727Z,1007.29
2017-05-01T11:32:32.663Z,1007.32
2017-05-01T11:33:42.701Z,1007.32
2017-05-01T11:34:52.619Z,1007.34
2017-05-01T11:36:02.531Z,1007.35
2017-05-01T11:37:12.787Z,1007.35
2017-05-01T11:38:22.698Z,1007.35
2017-05-01T11:39:32.889Z,1007.34
2017-05-01T11:40:43.111Z,1007.35
2017-05-01T11:41:53.361Z,1007.37
2017-05-01T11:43:03.663Z,1007.39
2017-05-01T11:44:13.267Z,1007.39
2017-05-01T11:45:23.482Z,1007.4
2017-05-01T11:46:33.710Z,1007.4
2017-05-01T11:47:43.349Z,1007.41
2017-05-01T11:48:53.583Z,1007.41
2017-05-01T11:50:03.198Z,1007.42
2017-05-01T11:51:13.721Z,1007.47
2017-05-01T11:52:23.637Z,1007.44
2017-05-01T11:53:33.554Z,1007.5
2017-05-01T11:54:42.874Z,1007.48
2017-05-01T11:55:53.097Z,1007.46
2017-05-01T11:57:03.263Z,1007.48
2017-05-01T11:58:13.184Z,1007.51
2017-05-01T11:59:22.800Z,1007.49
2017-05-01T12:00:33.028Z,1007.51
2017-05-01T12:01:42.330Z,1007.52
2017-05-01T12:02:52.043Z,1007.56
2017-05-01T12:04:01.959Z,1007.61
2017-05-01T12:05:12.196Z,1007.6
2017-05-01T12:06:22.096Z,1007.64
2017-05-01T12:07:31.694Z,1007.62
2017-05-01T12:08:41.720Z,1007.64
2017-05-01T12:09:51.648Z,1007.62
2017-05-01T12:11:00.950Z,1007.66
2017-05-01T12:12:10.785Z,1007.67
2017-05-01T12:13:21.009Z,1007.68
2017-05-01T12:14:30.575Z,1007.67
2017-05-01T12:15:40.485Z,1007.7
2017-05-01T12:16:50.689Z,1007.71
2017-05-01T12:18:00.590Z,1007.72
2017-05-01T12:19:10.529Z,1007.71
2017-05-01T12:20:20.292Z,1007.72
2017-05-01T12:21:30.504Z,1007.71
2017-05-01T12:22:40.407Z,1007.77
2017-05-01T12:23:50.359Z,1007.75
2017-05-01T12:24:59.975Z,1007.78
2017-05-01T12:26:09.731Z,1007.77
2017-05-01T12:27:19.325Z,1007.83
2017-05-01T12:28:29.241Z,1007.81
2017-05-01T12:29:39.153Z,1007.86
2017-05-01T12:30:48.760Z,1007.86
2017-05-01T12:31:58.529Z,1007.92
2017-05-01T12:33:08.140Z,1007.88
2017-05-01T12:34:18.057Z,1007.87
2017-05-01T12:35:27.972Z,1007.92
2017-05-01T12:36:37.277Z,1007.92
2017-05-01T12:37:47.184Z,1007.91
2017-05-01T12:38:56.793Z,1007.88
2017-05-01T12:40:06.437Z,1007.9
2017-05-01T12:41:15.733Z,1007.9
2017-05-01T12:42:25.672Z,1007.92
2017-05-01T12:43:35.589Z,1007.89
2017-05-01T12:44:45.199Z,1007.91
2017-05-01T12:45:54.502Z,1007.94
2017-05-01T12:47:03.799Z,1007.93
2017-05-01T12:48:14.022Z,1007.95
2017-05-01T12:49:24.085Z,1007.92
2017-05-01T12:50:34.293Z,1007.96
2017-05-01T12:51:44.224Z,1007.94
2017-05-01T12:52:54.470Z,1007.97
2017-05-01T12:54:04.731Z,1007.97
2017-05-01T12:55:14.422Z,1007.95
2017-05-01T12:56:24.330Z,1007.95
2017-05-01T12:57:33.930Z,1007.94
2017-05-01T12:58:43.841Z,1007.97
2017-05-01T12:59:53.756Z,1007.98
2017-05-01T13:01:04.129Z,1007.99
2017-05-01T13:02:13.728Z,1007.96
2017-05-01T13:03:23.336Z,1007.94
2017-05-01T13:04:33.544Z,1008
2017-05-01T13:05:44.310Z,1008.01
2017-05-01T13:06:54.826Z,1008
2017-05-01T13:08:05.035Z,1008.01
2017-05-01T13:09:15.250Z,1008
2017-05-01T13:10:24.852Z,1008.02
2017-05-01T13:11:34.457Z,1008.04
2017-05-01T13:12:44.361Z,1008
2017-05-01T13:13:55.362Z,1007.97
2017-05-01T13:15:06.616Z,1008.01
2017-05-01T13:16:16.525Z,1008.01
2017-05-01T13:17:26.436Z,1008.01
2017-05-01T13:18:36.907Z,1008
2017-05-01T13:19:47.232Z,1008.02
2017-05-01T13:20:58.492Z,1008.05
2017-05-01T13:22:09.040Z,1008.04
2017-05-01T13:23:18.946Z,1008.08
2017-05-01T13:24:29.443Z,1008.03
2017-05-01T13:25:39.873Z,1008.08
2017-05-01T13:26:51.489Z,1008.09
2017-05-01T13:28:02.519Z,1008.05
2017-05-01T13:29:11.971Z,1008.1
2017-05-01T13:30:22.823Z,1008.08
2017-05-01T13:31:33.005Z,1008.12
2017-05-01T13:32:42.616Z,1008.13
2017-05-01T13:33:52.231Z,1008.15
2017-05-01T13:35:02.553Z,1008.17
2017-05-01T13:36:12.215Z,1008.17
2017-05-01T13:37:22.210Z,1008.19
2017-05-01T13:38:32.132Z,1008.2
2017-05-01T13:39:42.357Z,1008.23
2017-05-01T13:40:51.740Z,1008.27
2017-05-01T13:42:01.973Z,1008.27
2017-05-01T13:43:12.653Z,1008.25
2017-05-01T13:44:22.953Z,1008.27
2017-05-01T13:45:32.573Z,1008.28
2017-05-01T13:46:42.876Z,1008.26
2017-05-01T13:47:52.598Z,1008.3
2017-05-01T13:49:02.532Z,1008.3
2017-05-01T13:50:12.506Z,1008.27
2017-05-01T13:51:22.122Z,1008.3
2017-05-01T13:52:32.090Z,1008.28
2017-05-01T13:53:42.835Z,1008.32
2017-05-01T13:54:52.759Z,1008.29
2017-05-01T13:56:03.004Z,1008.3
2017-05-01T13:57:13.635Z,1008.28
2017-05-01T13:58:23.644Z,1008.31
2017-05-01T13:59:34.109Z,1008.31
2017-05-01T14:00:44.026Z,1008.3
2017-05-01T14:01:54.609Z,1008.3
2017-05-01T14:03:04.764Z,1008.35
2017-05-01T14:04:14.691Z,1008.31
2017-05-01T14:05:25.630Z,1008.37
2017-05-01T14:06:35.930Z,1008.33
2017-05-01T14:07:45.303Z,1008.33
2017-05-01T14:08:55.246Z,1008.35
2017-05-01T14:10:05.582Z,1008.33
2017-05-01T14:11:15.885Z,1008.35